Nassau, Bahamas

1:16 PM EST on January 21, 2017 (GMT -0500)
Centreville | | Change Station

Elev 104 ft 25.07 °N, 77.33 °W | Updated 2 minutes ago

Clear
Clear
82.6 °F
Feels Like 86 °F
N
0.6
Wind Variable Wind from East
Gusts 1.9 mph

Today
High -- | Low -- °F
--% Chance of Precip.
Yesterday
High -- | Low -- °F
Precip. -- in
Pressure 29.99 in
Visibility 6.2 miles
Clouds Few 2000 ft
Heat Index 86 °F
Dew Point 68 °F
Humidity 61%
Rainfall Not available.
Snow Depth Not available.
6:55 AM 5:46 PM
Waning Crescent, 33% visible
METAR MYNN 211800Z 00000KT 9999 FEW020 27/19 A2999
Pressure 29.99 in
Visibility 6.2 miles
Clouds Few 2000 ft
Heat Index 86 °F
Dew Point 68 °F
Humidity 61%
Rainfall Not available.
Snow Depth Not available.
6:55 AM 5:46 PM
Waning Crescent, 33% visible
METAR MYNN 211800Z 00000KT 9999 FEW020 27/19 A2999

Get Your Daily Forecast Email!

Thanks for signing up!

Be on the lookout for a verification email in your inbox.

You'll start receiving the daily forecast at 8 AM.

×

10-Day Weather Forecast

No radar image for this location.
×

Almanac

Astronomy

Jan. 21, 2017 Rise Set
Actual Time
Civil Twilight
Nautical Twilight
Astronomical Twilight
Moon
Length of Visible Light
Length of Day
Tomorrow will be .
, % of the Moon is Illuminated

Today's Extremes

Country Highs Country Lows

Community

WunderPhotos

Upload Photos

1,962,540 photos uploaded!

WunderBlog® & News

Nearby

Air Quality

  Air Quality AQ Index Pollutant
Not available.

Snow Depth

Station Depth Elevation

Earthquake Activity

City Distance Mag. Time & Date
Minimum magnitude displayed is 2.5.

Coastal Water Temperatures

Place Temperature

Stations

Nearby Weather Stations

Station Location Temp. Windchill Dew Point Humidity Wind Precip. Elev Updated Type